Time;durP1;ratioP1;P1;durP2;ratioP2;P2;SDS_P1;SDS_P2;PMS_P1;PMS_P2;Temp;Humidity;BMP_temperature;BMP_pressure;BME280_temperature;BME280_humidity;BME280_pressure;Samples;Min_cycle;Max_cycle;Signal;HPM_P1;HPM_P2
2021/03/12 00:01:07;;;;;;;11.63;7.23;;;;;;;-0.10;50.05;100908.16;1760525;81;21123;-41
2021/03/12 00:03:36;;;;;;;10.53;7.37;;;;;;;-0.11;49.97;100899.88;1712338;83;21110;-43
2021/03/12 00:06:07;;;;;;;13.17;8.13;;;;;;;-0.12;49.88;100896.39;1762550;80;21186;-40
2021/03/12 00:08:38;;;;;;;11.55;8.33;;;;;;;-0.16;49.86;100886.80;1760708;80;21135;-40
2021/03/12 00:11:07;;;;;;;10.63;7.17;;;;;;;-0.18;49.97;100885.07;1759962;81;21125;-40
2021/03/12 00:14:04;;;;;;;12.07;10.10;;;;;;;-0.19;50.08;100885.97;1796887;78;23152;-42
2021/03/12 00:16:32;;;;;;;10.80;8.03;;;;;;;-0.26;50.18;100882.06;1722256;82;21153;-44
2021/03/12 00:19:00;;;;;;;12.03;8.07;;;;;;;-0.28;50.23;100882.95;1708666;82;21148;-41
2021/03/12 00:21:28;;;;;;;11.17;6.93;;;;;;;-0.30;50.18;100876.44;1717726;82;21164;-42
2021/03/12 00:23:56;;;;;;;9.80;7.83;;;;;;;-0.32;50.23;100880.81;1739567;81;21158;-41
2021/03/12 00:26:24;;;;;;;10.82;7.55;;;;;;;-0.31;50.21;100882.54;1700215;82;21118;-41
2021/03/12 00:28:51;;;;;;;13.83;8.27;;;;;;;-0.30;50.19;100879.05;1719874;82;21148;-42
2021/03/12 00:31:19;;;;;;;9.77;6.50;;;;;;;-0.30;50.31;100873.81;1721247;82;21193;-40
2021/03/12 00:34:05;;;;;;;12.37;7.37;;;;;;;-0.28;50.28;100873.78;1722992;82;21129;-44
2021/03/12 00:36:34;;;;;;;14.10;8.50;;;;;;;-0.26;50.24;100866.34;1725086;82;21118;-43
2021/03/12 00:39:02;;;;;;;11.30;7.53;;;;;;;-0.22;50.22;100864.58;1729427;82;21147;-45
2021/03/12 00:41:30;;;;;;;15.13;8.77;;;;;;;-0.21;50.17;100853.20;1727546;82;21146;-45
2021/03/12 00:43:59;;;;;;;14.60;7.63;;;;;;;-0.19;50.11;100849.27;1726690;82;21145;-41
2021/03/12 00:46:31;;;;;;;10.87;7.40;;;;;;;-0.21;50.09;100850.58;1722453;82;22170;-41
2021/03/12 00:49:00;;;;;;;10.83;8.63;;;;;;;-0.24;50.05;100844.92;1720128;81;21499;-40
2021/03/12 00:51:29;;;;;;;10.87;7.67;;;;;;;-0.27;50.12;100846.70;1721607;81;21356;-40
2021/03/12 00:54:11;;;;;;;12.87;7.57;;;;;;;-0.26;50.21;100842.74;1806108;77;22922;-41
2021/03/12 00:56:40;;;;;;;12.03;7.63;;;;;;;-0.34;50.24;100845.88;1777340;80;21151;-40
2021/03/12 00:59:09;;;;;;;10.70;6.20;;;;;;;-0.38;50.25;100836.73;1755418;80;21616;-41
2021/03/12 01:01:38;;;;;;;14.43;8.37;;;;;;;-0.40;50.42;100831.52;1774223;78;21695;-42
2021/03/12 01:04:06;;;;;;;9.10;7.13;;;;;;;-0.37;50.41;100830.63;1777964;80;21134;-41
2021/03/12 01:06:34;;;;;;;11.93;7.43;;;;;;;-0.38;50.22;100827.11;1744642;80;21303;-40
2021/03/12 01:11:30;;;;;;;9.53;7.37;;;;;;;-0.35;50.44;100816.63;1879236;74;25998;-47
2021/03/12 01:13:57;;;;;;;10.27;7.33;;;;;;;-0.36;50.68;100812.25;1857891;75;21552;-41
2021/03/12 01:16:27;;;;;;;10.80;6.83;;;;;;;-0.33;50.33;100799.14;1864129;75;21068;-40
2021/03/12 01:18:57;;;;;;;10.67;6.93;;;;;;;-0.30;50.18;100792.55;1828307;77;21120;-37
2021/03/12 01:21:26;;;;;;;9.23;6.43;;;;;;;-0.30;50.22;100778.59;1799302;78;21125;-45
2021/03/12 01:23:55;;;;;;;12.50;6.47;;;;;;;-0.32;49.97;100781.66;1770818;78;21179;-42
2021/03/12 01:26:23;;;;;;;11.67;7.40;;;;;;;-0.33;49.93;100780.80;1788720;78;21147;-40
2021/03/12 01:28:52;;;;;;;7.90;5.97;;;;;;;-0.34;49.87;100770.31;1818512;77;21152;-42
2021/03/12 01:31:22;;;;;;;11.63;6.23;;;;;;;-0.38;50.11;100778.63;1791233;78;21256;-41
2021/03/12 01:33:57;;;;;;;10.70;6.30;;;;;;;-0.41;50.12;100759.00;1796345;78;21289;-40
2021/03/12 01:36:26;;;;;;;7.73;5.80;;;;;;;-0.44;50.46;100766.45;1788108;78;21132;-42
2021/03/12 01:38:56;;;;;;;10.20;5.53;;;;;;;-0.43;50.27;100781.73;1828283;77;21111;-39
2021/03/12 01:42:17;;;;;;;9.90;7.23;;;;;;;-0.45;50.33;100787.00;1789994;78;24352;-44
2021/03/12 01:44:45;;;;;;;12.50;6.87;;;;;;;-0.51;50.68;100782.24;1766298;80;21233;-42
2021/03/12 01:47:14;;;;;;;10.90;6.83;;;;;;;-0.50;50.51;100790.55;1728200;80;21663;-40
2021/03/12 01:49:42;;;;;;;13.27;7.30;;;;;;;-0.51;50.50;100794.90;1749539;79;21153;-43
2021/03/12 01:52:10;;;;;;;9.67;6.33;;;;;;;-0.50;50.46;100799.28;1761444;79;21181;-42
2021/03/12 01:54:38;;;;;;;10.75;6.87;;;;;;;-0.51;50.42;100809.31;1750122;80;21848;-43
2021/03/12 01:57:07;;;;;;;8.70;6.30;;;;;;;-0.51;50.44;100796.66;1769679;79;21128;-41
2021/03/12 02:00:08;;;;;;;10.17;5.97;;;;;;;-0.49;50.39;100786.59;1794457;78;22927;-41
2021/03/12 02:02:41;;;;;;;9.07;6.10;;;;;;;-0.53;50.43;100790.55;1779964;79;21209;-42
2021/03/12 02:05:11;;;;;;;8.67;6.33;;;;;;;-0.52;50.61;100786.63;1776571;79;21143;-40
2021/03/12 02:07:39;;;;;;;11.67;6.30;;;;;;;-0.49;50.60;100777.86;1743508;81;21602;-43
2021/03/12 02:10:19;;;;;;;11.45;8.00;;;;;;;-0.45;50.70;100765.17;1759816;79;28666;-42
2021/03/12 02:13:27;;;;;;;11.28;6.87;;;;;;;-0.51;50.77;100742.94;1742839;80;21161;-40
2021/03/12 02:16:24;;;;;;;10.23;6.20;;;;;;;-0.46;50.83;100754.25;1746977;80;21153;-41
2021/03/12 02:19:20;;;;;;;9.47;6.13;;;;;;;-0.47;50.53;100739.42;1746451;80;21118;-40
2021/03/12 02:21:53;;;;;;;10.33;6.40;;;;;;;-0.51;50.63;100731.15;1745970;81;21110;-41
2021/03/12 02:24:51;;;;;;;10.70;7.03;;;;;;;-0.55;50.80;100742.11;1745449;80;21118;-41
2021/03/12 02:27:21;;;;;;;12.07;6.93;;;;;;;-0.55;50.91;100734.70;1741877;82;21141;-39
2021/03/12 02:29:53;;;;;;;8.67;6.00;;;;;;;-0.56;50.84;100727.70;1752579;80;21146;-42
2021/03/12 02:32:32;;;;;;;9.10;6.63;;;;;;;-0.57;50.96;100735.15;1749366;80;21129;-42
2021/03/12 02:35:06;;;;;;;11.83;6.63;;;;;;;-0.56;50.87;100730.32;1740917;82;21101;-39
2021/03/12 02:37:33;;;;;;;11.83;7.93;;;;;;;-0.60;50.83;100733.87;1710850;82;21125;-40
2021/03/12 02:40:01;;;;;;;11.17;6.50;;;;;;;-0.64;50.83;100717.73;1745073;82;21153;-41
2021/03/12 02:42:30;;;;;;;8.27;6.10;;;;;;;-0.69;51.06;100709.91;1736922;82;21130;-46
2021/03/12 02:44:59;;;;;;;11.50;6.43;;;;;;;-0.69;51.38;100702.91;1745436;80;21106;-45
2021/03/12 02:47:30;;;;;;;12.53;6.20;;;;;;;-0.69;51.19;100696.37;1680337;83;21126;-40
2021/03/12 02:50:01;;;;;;;13.43;7.57;;;;;;;-0.69;51.08;100689.82;1712281;82;21562;-39
2021/03/12 02:52:31;;;;;;;7.97;5.33;;;;;;;-0.72;51.05;100688.98;1703693;83;21566;-43
2021/03/12 02:55:00;;;;;;;15.70;6.37;;;;;;;-0.73;51.03;100709.08;1716216;82;21114;-40
2021/03/12 02:57:29;;;;;;;10.40;6.90;;;;;;;-0.77;50.95;100705.19;1716379;82;21171;-43
2021/03/12 02:59:58;;;;;;;13.80;6.93;;;;;;;-0.80;51.25;100699.53;1709637;82;21159;-41
2021/03/12 03:03:00;;;;;;;11.93;7.40;;;;;;;-0.80;51.18;100679.89;1799839;78;22942;-41
2021/03/12 03:05:36;;;;;;;12.90;6.20;;;;;;;-0.87;50.85;100683.00;1654011;84;21779;-41
2021/03/12 03:08:05;;;;;;;11.73;6.53;;;;;;;-0.90;51.09;100672.55;1652326;85;21623;-41
2021/03/12 03:11:09;;;;;;;12.77;6.70;;;;;;;-0.87;51.12;100682.13;1794907;78;23077;-43
2021/03/12 03:13:40;;;;;;;15.30;8.10;;;;;;;-0.91;51.25;100680.41;1776416;79;21200;-40
2021/03/12 03:16:16;;;;;;;8.03;5.58;;;;;;;-0.94;50.87;100669.52;1754136;80;21981;-42
2021/03/12 03:18:45;;;;;;;11.57;6.60;;;;;;;-0.96;50.97;100666.48;1751832;81;21118;-41
2021/03/12 03:21:14;;;;;;;12.00;7.07;;;;;;;-0.98;51.02;100669.58;1713249;81;21594;-41
2021/03/12 03:23:44;;;;;;;14.53;8.13;;;;;;;-1.01;50.90;100675.68;1710538;82;21189;-38
2021/03/12 03:26:13;;;;;;;15.45;6.42;;;;;;;-1.02;51.02;100673.09;1719163;82;21192;-38
2021/03/12 03:28:42;;;;;;;13.43;7.00;;;;;;;-1.02;50.87;100677.88;1713722;81;21159;-43
2021/03/12 03:31:10;;;;;;;11.90;7.03;;;;;;;-1.03;50.79;100656.94;1709208;82;21594;-40
2021/03/12 03:33:38;;;;;;;9.97;5.63;;;;;;;-1.06;50.73;100649.98;1714041;82;21180;-40
2021/03/12 03:36:09;;;;;;;12.30;6.87;;;;;;;-1.07;50.83;100665.72;1713233;82;21157;-39
2021/03/12 03:38:39;;;;;;;10.63;6.97;;;;;;;-1.08;50.85;100660.93;1685449;81;21153;-38
2021/03/12 03:41:12;;;;;;;10.43;5.73;;;;;;;-1.06;50.96;100668.30;1734317;81;21601;-41
2021/03/12 03:43:43;;;;;;;11.43;7.10;;;;;;;-1.05;50.50;100653.49;1727700;81;21165;-39
2021/03/12 03:46:13;;;;;;;9.57;6.43;;;;;;;-1.09;50.31;100665.27;1707139;82;21695;-39
2021/03/12 03:48:43;;;;;;;14.97;7.47;;;;;;;-1.10;50.39;100646.53;1710726;82;21196;-44
2021/03/12 03:51:14;;;;;;;12.67;6.17;;;;;;;-1.12;50.49;100646.11;1714437;82;21181;-47
2021/03/12 03:53:44;;;;;;;13.90;6.37;;;;;;;-1.15;50.41;100643.53;1720540;81;21597;-39
2021/03/12 03:56:13;;;;;;;12.30;6.67;;;;;;;-1.19;50.13;100647.90;1718436;81;21154;-39
2021/03/12 03:58:42;;;;;;;10.05;6.67;;;;;;;-1.24;50.46;100637.05;1705269;82;21196;-39
2021/03/12 04:01:13;;;;;;;9.60;6.30;;;;;;;-1.25;50.59;100641.42;1698889;82;21176;-39
2021/03/12 04:06:31;;;;;;;18.60;7.73;;;;;;;-1.19;50.53;100599.48;1814274;77;24931;-42
2021/03/12 04:08:59;;;;;;;9.90;6.90;;;;;;;-1.24;50.55;100619.59;1759240;78;21169;-41
2021/03/12 04:11:27;;;;;;;10.30;5.50;;;;;;;-1.22;50.67;100621.77;1753524;79;21160;-41
2021/03/12 04:13:55;;;;;;;15.20;5.93;;;;;;;-1.20;50.88;100631.78;1777229;78;21193;-42
2021/03/12 04:16:24;;;;;;;12.10;6.13;;;;;;;-1.17;50.73;100621.28;1788071;79;21274;-42
2021/03/12 04:18:52;;;;;;;12.10;6.30;;;;;;;-1.15;51.02;100611.67;1787317;78;21731;-41
2021/03/12 04:21:21;;;;;;;9.33;6.03;;;;;;;-1.14;50.88;100614.70;1792144;77;21192;-44
2021/03/12 04:23:50;;;;;;;12.37;6.70;;;;;;;-1.10;50.99;100626.90;1794005;78;21165;-39
2021/03/12 04:26:17;;;;;;;12.00;6.07;;;;;;;-1.04;50.77;100640.37;1798103;78;21244;-40
2021/03/12 04:28:45;;;;;;;11.03;6.50;;;;;;;-1.03;50.59;100643.84;1806421;78;21376;-39
2021/03/12 04:31:13;;;;;;;14.33;6.03;;;;;;;-1.02;50.37;100660.00;1768289;79;21283;-38
2021/03/12 04:33:42;;;;;;;9.57;7.53;;;;;;;-1.03;50.51;100634.27;1747661;79;21133;-40
2021/03/12 04:36:10;;;;;;;17.10;6.53;;;;;;;-1.08;50.36;100634.75;1798372;78;21167;-40
2021/03/12 04:38:39;;;;;;;12.27;6.47;;;;;;;-1.13;50.38;100624.31;1779916;79;21174;-38
2021/03/12 04:41:07;;;;;;;16.60;7.23;;;;;;;-1.15;50.67;100625.20;1757652;79;21731;-39
2021/03/12 04:43:35;;;;;;;13.53;6.77;;;;;;;-1.19;50.48;100631.34;1805323;78;21164;-37
2021/03/12 04:46:03;;;;;;;17.80;7.33;;;;;;;-1.22;50.70;100627.44;1792746;79;21177;-38
2021/03/12 04:48:35;;;;;;;12.63;7.40;;;;;;;-1.25;50.38;100640.11;1771259;78;21275;-41
2021/03/12 04:51:11;;;;;;;11.73;6.93;;;;;;;-1.29;50.62;100651.47;1780088;78;21609;-43
2021/03/12 04:53:43;;;;;;;11.50;6.20;;;;;;;-1.35;50.67;100648.91;1766952;79;21119;-41
2021/03/12 04:56:11;;;;;;;9.50;6.30;;;;;;;-1.41;50.63;100651.14;1766510;79;21125;-42
2021/03/12 04:58:40;;;;;;;10.83;6.57;;;;;;;-1.43;50.84;100658.56;1743283;80;21148;-38
2021/03/12 05:01:08;;;;;;;12.90;7.20;;;;;;;-1.44;50.99;100663.35;1730849;81;21776;-38
2021/03/12 05:03:37;;;;;;;14.77;7.97;;;;;;;-1.44;51.25;100647.66;1692609;82;21202;-37
2021/03/12 05:06:06;;;;;;;11.90;7.47;;;;;;;-1.45;51.14;100656.39;1712124;82;21181;-38
2021/03/12 05:11:05;;;;;;;12.40;6.77;;;;;;;-1.42;51.10;100640.67;1791655;78;27321;-40
2021/03/12 05:13:36;;;;;;;9.77;6.43;;;;;;;-1.47;51.19;100651.16;1765582;80;21151;-39
2021/03/12 05:16:05;;;;;;;13.17;7.70;;;;;;;-1.45;51.20;100642.87;1771953;80;21614;-40
2021/03/12 05:18:33;;;;;;;11.20;7.50;;;;;;;-1.43;51.27;100642.87;1700534;82;21100;-38
2021/03/12 05:21:03;;;;;;;11.23;6.77;;;;;;;-1.44;51.38;100651.58;1697940;82;21941;-39
2021/03/12 05:23:31;;;;;;;11.87;7.10;;;;;;;-1.46;51.36;100658.56;1709280;82;21174;-41
2021/03/12 05:25:59;;;;;;;15.17;7.17;;;;;;;-1.44;52.66;100653.75;1702660;82;21169;-39
2021/03/12 05:32:36;;;;;;;10.13;6.87;;;;;;;-1.35;50.98;100647.16;1748355;81;21114;-38
2021/03/12 05:35:07;;;;;;;13.23;7.57;;;;;;;-1.38;51.10;100648.49;1675761;82;21142;-38
2021/03/12 05:37:36;;;;;;;10.33;6.07;;;;;;;-1.40;51.30;100654.17;1754550;80;21625;-36
2021/03/12 05:40:07;;;;;;;10.00;7.45;;;;;;;-1.37;51.57;100644.98;1756365;80;21128;-43
2021/03/12 05:46:10;;;;;;;13.23;6.63;;;;;;;-1.31;50.82;100639.72;1758991;80;21125;-42
2021/03/12 05:48:43;;;;;;;12.78;6.55;;;;;;;-1.35;51.04;100648.47;1733187;81;21098;-41
2021/03/12 05:51:13;;;;;;;11.73;6.70;;;;;;;-1.37;51.17;100639.75;1737094;81;21134;-46
2021/03/12 05:53:41;;;;;;;16.07;7.77;;;;;;;-1.35;50.78;100627.98;1738271;81;21121;-41
2021/03/12 05:56:11;;;;;;;9.77;6.80;;;;;;;-1.36;50.72;100636.69;1741334;80;21153;-41
2021/03/12 05:58:40;;;;;;;17.87;8.57;;;;;;;-1.38;50.63;100645.02;1716640;81;21097;-45
2021/03/12 06:01:08;;;;;;;13.57;7.20;;;;;;;-1.39;50.42;100640.19;1738710;81;21113;-41
2021/03/12 06:03:37;;;;;;;11.90;6.63;;;;;;;-1.40;50.36;100631.92;1691861;82;21552;-41
2021/03/12 06:06:05;;;;;;;10.67;7.20;;;;;;;-1.42;50.41;100630.20;1738470;81;21509;-41
2021/03/12 06:08:34;;;;;;;8.87;6.37;;;;;;;-1.39;50.28;100632.79;1735251;81;21150;-41
2021/03/12 06:11:04;;;;;;;15.60;8.40;;;;;;;-1.39;50.22;100637.58;1720449;82;21101;-39
2021/03/12 06:13:49;;;;;;;16.00;7.80;;;;;;;-1.35;50.27;100630.59;1705504;82;21594;-50
2021/03/12 06:16:27;;;;;;;13.07;6.37;;;;;;;-1.31;50.08;100625.33;1708711;82;21142;-40
2021/03/12 06:19:21;;;;;;;10.63;6.97;;;;;;;-1.27;50.42;100630.09;1687181;83;21193;-50
2021/03/12 06:21:53;;;;;;;12.23;6.50;;;;;;;-1.26;50.00;100634.46;1682212;83;21161;-40
2021/03/12 06:24:31;;;;;;;13.90;7.47;;;;;;;-1.25;49.63;100619.17;1711274;82;21162;-40
2021/03/12 06:27:28;;;;;;;12.57;6.77;;;;;;;-1.23;49.72;100604.33;1763535;79;23051;-42
2021/03/12 06:30:29;;;;;;;12.27;6.73;;;;;;;-1.27;49.55;100584.73;1808457;77;23082;-42
2021/03/12 06:33:34;;;;;;;13.13;7.27;;;;;;;-1.31;49.65;100590.45;1711338;82;21176;-41
2021/03/12 06:36:06;;;;;;;11.63;6.57;;;;;;;-1.28;49.88;100588.25;1723871;81;21146;-41
2021/03/12 06:38:42;;;;;;;19.33;8.30;;;;;;;-1.25;49.83;100585.59;1719892;82;21178;-43
2021/03/12 06:41:42;;;;;;;16.17;7.70;;;;;;;-1.19;49.45;100577.23;1765081;79;23099;-45
2021/03/12 06:44:34;;;;;;;12.73;7.70;;;;;;;-1.23;49.33;100584.70;1738679;81;21148;-41
2021/03/12 06:47:05;;;;;;;17.47;6.47;;;;;;;-1.22;49.82;100559.39;1735381;80;21145;-44
2021/03/12 06:49:35;;;;;;;15.85;6.08;;;;;;;-1.18;49.51;100565.04;1688384;83;21608;-40
2021/03/12 06:52:07;;;;;;;12.80;6.93;;;;;;;-1.15;49.21;100560.62;1658843;83;21125;-42
2021/03/12 06:54:38;;;;;;;;;;;;;;;-1.12;49.22;100565.83;1717870;82;21117;-53
2021/03/12 06:57:20;;;;;;;16.70;6.03;;;;;;;-1.12;49.13;100563.21;1667653;83;20812;-44
2021/03/12 07:00:06;;;;;;;14.63;6.90;;;;;;;-1.09;49.44;100562.31;1709104;82;21145;-40
2021/03/12 07:02:36;;;;;;;18.60;8.40;;;;;;;-1.06;48.82;100574.51;1710812;82;21604;-43
2021/03/12 07:05:07;;;;;;;13.43;7.75;;;;;;;-1.06;48.73;100574.06;1712463;82;21711;-46
2021/03/12 07:07:46;;;;;;;18.30;7.83;;;;;;;-1.03;48.85;100574.47;1808161;77;22882;-39
2021/03/12 07:10:18;;;;;;;14.50;6.27;;;;;;;-1.07;48.59;100581.95;1800080;78;21534;-40
2021/03/12 07:12:53;;;;;;;18.00;8.13;;;;;;;-1.11;48.91;100575.85;1815626;78;21125;-44
2021/03/12 07:15:23;;;;;;;16.17;6.70;;;;;;;-1.11;48.93;100566.28;1807263;78;21557;-43
2021/03/12 07:17:52;;;;;;;12.70;7.17;;;;;;;-1.08;48.91;100578.47;1810349;78;21553;-45
2021/03/12 07:20:23;;;;;;;22.50;7.60;;;;;;;-1.05;49.04;100572.34;1806070;78;21129;-43
2021/03/12 07:22:53;;;;;;;16.60;9.13;;;;;;;-1.03;48.63;100549.59;1809582;78;21121;-43
2021/03/12 07:25:23;;;;;;;;;;;;;;;-1.02;48.75;100553.97;1793072;78;21129;-45
2021/03/12 07:27:52;;;;;;;15.20;8.47;;;;;;;-1.03;48.68;100526.04;1813177;78;20259;-45
2021/03/12 07:30:22;;;;;;;14.47;6.77;;;;;;;-1.06;48.79;100520.84;1812316;78;21133;-44
2021/03/12 07:32:53;;;;;;;13.87;6.13;;;;;;;-1.05;49.05;100508.20;1812611;78;21093;-42
2021/03/12 07:35:24;;;;;;;20.82;6.83;;;;;;;-1.00;48.94;100507.70;1809804;78;21133;-46
2021/03/12 07:37:55;;;;;;;12.95;6.55;;;;;;;-0.97;48.78;100512.45;1801651;78;21562;-41
2021/03/12 07:40:26;;;;;;;19.87;7.37;;;;;;;-0.93;48.95;100512.86;1809975;78;21154;-45
2021/03/12 07:42:57;;;;;;;18.97;6.87;;;;;;;-0.91;49.03;100515.44;1812303;78;21093;-43
2021/03/12 07:46:03;;;;;;;17.43;7.80;;;;;;;-0.81;49.17;100526.23;1796381;78;23552;-42
2021/03/12 07:48:32;;;;;;;20.52;6.42;;;;;;;-0.79;48.75;100514.45;1768394;79;21125;-45
2021/03/12 07:51:14;;;;;;;18.27;6.63;;;;;;;-0.71;49.03;100506.05;1799450;78;22990;-43
2021/03/12 07:53:54;;;;;;;12.90;6.40;;;;;;;-0.70;48.82;100510.42;1716886;82;21672;-45
2021/03/12 07:56:53;;;;;;;21.25;8.23;;;;;;;-0.68;48.17;100474.16;1882380;74;28153;-41
2021/03/12 07:59:46;;;;;;;16.93;7.37;;;;;;;-0.75;48.57;100486.04;1858399;75;21158;-44
2021/03/12 08:02:56;;;;;;;18.55;6.05;;;;;;;-0.71;48.69;100467.62;1868096;75;21265;-44
2021/03/12 08:05:44;;;;;;;17.40;6.50;;;;;;;-0.71;48.32;100458.91;1804537;78;21486;-44
2021/03/12 08:08:33;;;;;;;12.33;5.93;;;;;;;-0.78;48.62;100464.68;1789962;78;21740;-44
2021/03/12 08:11:36;;;;;;;11.40;6.30;;;;;;;-0.82;49.05;100462.97;1796137;78;21459;-43
2021/03/12 08:14:18;;;;;;;18.83;6.37;;;;;;;-0.82;49.08;100482.61;1781453;78;21618;-43
2021/03/12 08:17:05;;;;;;;18.67;6.73;;;;;;;-0.76;49.15;100473.80;1788904;79;21168;-45
2021/03/12 08:19:38;;;;;;;20.37;6.47;;;;;;;-0.76;49.06;100483.84;1797079;78;21117;-43
2021/03/12 08:22:34;;;;;;;18.83;6.30;;;;;;;-0.73;49.41;100490.79;1795042;78;21168;-45
2021/03/12 08:25:10;;;;;;;10.13;5.50;;;;;;;-0.70;49.22;100480.30;1783597;78;21672;-45
2021/03/12 08:27:49;;;;;;;13.53;5.80;;;;;;;-0.68;49.59;100486.36;1811778;76;21727;-44
2021/03/12 08:30:43;;;;;;;13.47;7.03;;;;;;;-0.66;49.32;100475.42;1778466;78;21110;-42
2021/03/12 08:33:24;;;;;;;14.40;6.80;;;;;;;-0.65;49.58;100473.25;1792939;79;21221;-43
2021/03/12 08:36:07;;;;;;;8.40;5.10;;;;;;;-0.61;49.54;100459.66;1802537;78;21136;-43
2021/03/12 08:38:54;;;;;;;9.87;5.33;;;;;;;-0.59;49.84;100446.96;1782808;78;21193;-54
2021/03/12 08:41:40;;;;;;;16.53;6.27;;;;;;;-0.55;49.64;100446.49;1813454;78;21604;-48
2021/03/12 08:44:42;;;;;;;12.10;5.50;;;;;;;-0.48;49.58;100434.59;1793041;78;23127;-47
2021/03/12 08:47:18;;;;;;;13.17;5.90;;;;;;;-0.50;49.82;100432.44;1760730;80;21153;-41
2021/03/12 08:49:54;;;;;;;13.37;6.43;;;;;;;-0.47;49.79;100431.53;1749527;80;21178;-44
2021/03/12 08:52:23;;;;;;;14.03;6.17;;;;;;;-0.45;49.67;100423.20;1713926;81;21176;-47
2021/03/12 08:54:54;;;;;;;14.15;5.92;;;;;;;-0.43;49.88;100416.16;1756338;80;21351;-52
2021/03/12 08:57:24;;;;;;;17.47;6.03;;;;;;;-0.38;49.80;100413.48;1751051;80;21164;-59
2021/03/12 09:00:06;;;;;;;16.40;7.77;;;;;;;-0.38;49.81;100412.17;1746125;80;21152;-49
2021/03/12 09:02:46;;;;;;;14.40;7.63;;;;;;;-0.32;49.90;100403.78;1794758;77;23370;-45
2021/03/12 09:05:27;;;;;;;15.25;7.17;;;;;;;-0.33;49.99;100410.34;1789893;78;21120;-44
2021/03/12 09:08:14;;;;;;;14.57;7.53;;;;;;;-0.32;50.09;100408.16;1780443;78;21116;-47
2021/03/12 09:10:46;;;;;;;16.83;5.97;;;;;;;-0.30;49.99;100386.28;1783399;78;21157;-44
2021/03/12 09:13:34;;;;;;;9.47;5.43;;;;;;;-0.26;50.35;100387.09;1778819;78;21105;-43
2021/03/12 09:16:05;;;;;;;12.53;6.60;;;;;;;-0.24;50.04;100399.73;1783468;78;21865;-44
2021/03/12 09:18:38;;;;;;;10.43;5.73;;;;;;;-0.25;49.83;100394.94;1756508;80;21129;-41
2021/03/12 09:21:08;;;;;;;;;;;;;;;-0.22;49.88;100384.86;1761657;79;21136;-43
2021/03/12 09:23:41;;;;;;;11.30;5.70;;;;;;;-0.24;49.93;100390.11;1766965;79;20175;-48
2021/03/12 09:26:18;;;;;;;11.47;5.93;;;;;;;-0.26;50.07;100393.64;1787035;79;21188;-49
2021/03/12 09:28:50;;;;;;;14.77;7.33;;;;;;;-0.32;50.53;100388.06;1728326;81;21128;-45
2021/03/12 09:31:39;;;;;;;13.10;7.67;;;;;;;-0.31;50.75;100387.16;1745446;80;21137;-42
2021/03/12 09:34:18;;;;;;;15.20;6.43;;;;;;;-0.31;50.54;100376.67;1747951;80;21608;-47
2021/03/12 09:36:50;;;;;;;9.30;6.03;;;;;;;-0.30;50.43;100379.73;1752224;80;21133;-47
2021/03/12 09:39:39;;;;;;;10.33;5.83;;;;;;;-0.32;50.45;100389.82;1752199;80;21120;-47
2021/03/12 09:42:09;;;;;;;16.77;7.23;;;;;;;-0.32;50.74;100386.75;1748717;80;21149;-46
2021/03/12 09:44:39;;;;;;;9.07;5.77;;;;;;;-0.30;50.81;100381.05;1745314;80;21160;-45
2021/03/12 09:47:09;;;;;;;11.40;6.67;;;;;;;-0.30;50.81;100377.56;1749394;80;21161;-45
2021/03/12 09:49:42;;;;;;;8.83;5.30;;;;;;;-0.28;50.87;100366.16;1740534;81;21114;-47
2021/03/12 09:52:16;;;;;;;8.17;6.03;;;;;;;-0.25;50.97;100363.94;1698652;83;21177;-45
2021/03/12 09:54:50;;;;;;;10.70;6.10;;;;;;;-0.25;51.35;100370.50;1683928;84;21153;-45
2021/03/12 09:57:19;;;;;;;11.93;6.20;;;;;;;-0.22;51.07;100369.13;1654059;84;21692;-46
2021/03/12 09:59:52;;;;;;;11.83;4.75;;;;;;;-0.22;50.91;100366.05;1689179;84;21130;-44
2021/03/12 10:02:55;;;;;;;14.07;8.13;;;;;;;-0.17;51.32;100355.50;1787764;78;28267;-46
2021/03/12 10:05:40;;;;;;;13.73;6.27;;;;;;;-0.18;51.35;100350.27;1767486;79;21566;-45
2021/03/12 10:08:18;;;;;;;10.43;5.87;;;;;;;-0.04;51.59;100338.66;1758314;79;23118;-47
2021/03/12 10:10:55;;;;;;;11.70;6.13;;;;;;;-0.03;51.58;100349.55;1726268;82;21136;-43
2021/03/12 10:13:27;;;;;;;9.13;4.80;;;;;;;0.01;52.13;100350.39;1732132;82;21102;-43
2021/03/12 10:15:56;;;;;;;9.93;5.33;;;;;;;0.02;52.77;100346.00;1728227;82;21675;-43
2021/03/12 10:18:32;;;;;;;12.55;6.83;;;;;;;0.07;53.54;100337.16;1782637;79;28283;-46
2021/03/12 10:21:09;;;;;;;11.20;6.23;;;;;;;0.05;53.83;100335.45;1770453;79;21168;-46
2021/03/12 10:23:36;;;;;;;10.40;5.70;;;;;;;0.10;55.53;100330.57;1771277;79;21157;-48
2021/03/12 10:26:06;;;;;;;13.70;5.30;;;;;;;0.10;57.67;100331.87;1772149;80;21102;-41
2021/03/12 10:28:33;;;;;;;8.87;5.60;;;;;;;0.12;59.06;100330.52;1776421;80;21141;-42
2021/03/12 10:31:02;;;;;;;11.20;5.80;;;;;;;0.10;59.40;100333.19;1723754;81;21165;-44
2021/03/12 10:33:32;;;;;;;8.23;5.67;;;;;;;0.13;60.21;100335.75;1720358;82;21623;-43
2021/03/12 10:36:04;;;;;;;11.67;6.17;;;;;;;0.13;62.75;100326.58;1725319;81;21280;-47
2021/03/12 10:38:34;;;;;;;8.60;6.13;;;;;;;0.12;63.18;100336.63;1742041;81;21149;-45
2021/03/12 10:41:08;;;;;;;10.63;5.77;;;;;;;0.10;64.13;100335.81;1738723;81;21993;-46
2021/03/12 10:43:36;;;;;;;11.17;6.57;;;;;;;0.09;64.55;100338.00;1730731;81;21142;-43
2021/03/12 10:46:07;;;;;;;13.93;5.67;;;;;;;0.08;64.63;100325.80;1731552;81;21124;-44
2021/03/12 10:48:44;;;;;;;8.90;5.53;;;;;;;0.10;65.11;100336.23;1718374;81;21746;-45
2021/03/12 10:51:14;;;;;;;11.93;7.30;;;;;;;0.10;65.50;100332.30;1713691;81;21688;-45
2021/03/12 10:53:53;;;;;;;9.87;6.17;;;;;;;0.10;67.13;100326.64;1681115;84;21198;-45
2021/03/12 10:56:26;;;;;;;8.90;5.90;;;;;;;0.09;68.30;100335.37;1699020;83;21200;-44
2021/03/12 10:58:55;;;;;;;11.93;6.73;;;;;;;0.08;70.25;100323.62;1714154;81;21150;-45
2021/03/12 11:01:26;;;;;;;9.17;5.67;;;;;;;0.06;69.13;100318.84;1691072;84;21138;-47
2021/03/12 11:03:55;;;;;;;9.28;6.67;;;;;;;0.04;68.68;100324.56;1714271;81;21585;-48
2021/03/12 11:06:29;;;;;;;10.50;6.20;;;;;;;0.01;68.72;100325.93;1700799;83;21184;-47
2021/03/12 11:08:56;;;;;;;10.90;6.50;;;;;;;0.01;68.67;100328.09;1689755;83;21163;-46
2021/03/12 11:11:26;;;;;;;11.63;7.23;;;;;;;0.03;68.64;100321.53;1693017;83;21265;-46
2021/03/12 11:13:55;;;;;;;11.00;7.80;;;;;;;0.05;69.13;100328.48;1692667;83;21676;-44
2021/03/12 11:16:23;;;;;;;13.28;7.28;;;;;;;0.09;69.42;100327.52;1717515;81;21164;-45
2021/03/12 11:18:51;;;;;;;13.23;7.10;;;;;;;0.09;69.31;100317.02;1706618;83;21186;-44
2021/03/12 11:21:19;;;;;;;13.13;5.67;;;;;;;0.08;69.19;100319.23;1687555;83;21639;-43
2021/03/12 11:23:47;;;;;;;10.80;6.97;;;;;;;0.06;69.69;100313.60;1688695;83;21140;-48
2021/03/12 11:26:14;;;;;;;13.43;7.83;;;;;;;0.04;70.23;100312.30;1685141;83;21155;-44
2021/03/12 11:28:42;;;;;;;11.80;7.83;;;;;;;0.06;70.13;100309.67;1690798;83;21195;-43
2021/03/12 11:31:13;;;;;;;10.53;6.23;;;;;;;0.08;69.98;100307.89;1688414;83;21568;-47
2021/03/12 11:33:41;;;;;;;11.00;6.83;;;;;;;0.08;69.89;100303.50;1690759;83;21912;-50
2021/03/12 11:36:11;;;;;;;7.43;5.77;;;;;;;0.07;69.84;100301.75;1695329;83;21123;-53
2021/03/12 11:38:40;;;;;;;8.23;5.93;;;;;;;0.09;69.73;100303.05;1687472;83;21134;-49
2021/03/12 11:41:07;;;;;;;8.50;6.53;;;;;;;0.09;69.72;100295.18;1676739;83;21472;-44
2021/03/12 11:43:37;;;;;;;10.03;6.53;;;;;;;0.09;69.87;100302.59;1674916;83;21163;-45
2021/03/12 11:46:05;;;;;;;10.37;6.47;;;;;;;0.09;70.18;100302.59;1693815;83;21577;-43
2021/03/12 11:48:33;;;;;;;12.47;6.73;;;;;;;0.08;70.19;100292.16;1709758;82;21139;-43
2021/03/12 11:51:01;;;;;;;9.87;6.90;;;;;;;0.05;70.48;100286.94;1691081;83;21270;-45
2021/03/12 11:53:31;;;;;;;7.37;5.60;;;;;;;0.04;70.90;100279.53;1683420;84;21172;-46
2021/03/12 11:55:59;;;;;;;10.50;6.67;;;;;;;0.06;71.65;100270.33;1710367;82;21141;-46
2021/03/12 11:58:26;;;;;;;10.60;6.60;;;;;;;0.07;71.18;100277.30;1690597;82;21158;-46
2021/03/12 12:00:54;;;;;;;9.57;6.47;;;;;;;0.04;71.17;100262.94;1677779;83;21998;-43
2021/03/12 12:03:22;;;;;;;17.73;8.20;;;;;;;0.03;71.13;100260.77;1696368;83;21190;-44
2021/03/12 12:05:49;;;;;;;11.17;6.57;;;;;;;0.07;71.48;100258.94;1684437;84;21166;-43
2021/03/12 12:08:17;;;;;;;10.13;6.37;;;;;;;0.09;71.76;100253.22;1684603;84;21174;-51